Terminal Aerodrome Forecast
Issued by NWS Caribou, ME

Home | Current Version | Previous Version | Text Only | Print | Product List | Glossary On
Versions: 1 2 3 4 5 6 7 8 9 10 11 12 13 14 15 16 17 18 19 20 21 22 23 24 25 26 27 28 29 30 31 32 33 34 35 36
518
FTUS41 KCAR 190520
TAFCAR
TAF
KCAR 190520Z 1906/2006 17012KT 5SM RA BR OVC008 WS020/20040KT
     FM191200 21008KT 3SM -RA BR OVC007
     FM191900 27006KT 5SM -RA BR OVC012
     FM200200 01007KT 2SM -RA BR OVC008=

USA.gov is the U.S. government's official web portal to all federal, state and local government web resources and services.